sensor_id;sensor_type;location;lat;lon;timestamp;temperature;humidity
30047;DHT22;16878;52.542;13.426;2022-08-25T00:01:30;20.30;99.90
30047;DHT22;16878;52.542;13.426;2022-08-25T00:03:57;20.30;99.90
30047;DHT22;16878;52.542;13.426;2022-08-25T00:06:23;20.30;99.90
30047;DHT22;16878;52.542;13.426;2022-08-25T00:08:49;20.20;99.90
30047;DHT22;16878;52.542;13.426;2022-08-25T00:11:16;20.30;99.90
30047;DHT22;16878;52.542;13.426;2022-08-25T00:13:43;20.20;99.90
30047;DHT22;16878;52.542;13.426;2022-08-25T00:16:09;20.20;99.90
30047;DHT22;16878;52.542;13.426;2022-08-25T00:18:36;20.20;99.90
30047;DHT22;16878;52.542;13.426;2022-08-25T00:21:02;20.10;99.90
30047;DHT22;16878;52.542;13.426;2022-08-25T00:23:27;20.10;99.90
30047;DHT22;16878;52.542;13.426;2022-08-25T00:25:53;20.10;99.90
30047;DHT22;16878;52.542;13.426;2022-08-25T00:28:19;20.10;99.90
30047;DHT22;16878;52.542;13.426;2022-08-25T00:30:45;20.00;99.90
30047;DHT22;16878;52.542;13.426;2022-08-25T00:33:11;20.00;99.90
30047;DHT22;16878;52.542;13.426;2022-08-25T00:35:36;20.00;99.90
30047;DHT22;16878;52.542;13.426;2022-08-25T00:38:02;19.90;99.90
30047;DHT22;16878;52.542;13.426;2022-08-25T00:40:28;19.90;99.90
30047;DHT22;16878;52.542;13.426;2022-08-25T00:42:53;20.00;99.90
30047;DHT22;16878;52.542;13.426;2022-08-25T00:45:20;19.90;99.90
30047;DHT22;16878;52.542;13.426;2022-08-25T00:47:46;19.90;99.90
30047;DHT22;16878;52.542;13.426;2022-08-25T00:50:12;19.90;99.90
30047;DHT22;16878;52.542;13.426;2022-08-25T00:52:40;19.90;99.90
30047;DHT22;16878;52.542;13.426;2022-08-25T00:57:34;19.90;99.90
30047;DHT22;16878;52.542;13.426;2022-08-25T01:00:05;19.90;99.90
30047;DHT22;16878;52.542;13.426;2022-08-25T01:02:31;19.80;99.90
30047;DHT22;16878;52.542;13.426;2022-08-25T01:04:56;19.80;99.90
30047;DHT22;16878;52.542;13.426;2022-08-25T01:07:22;19.80;99.90
30047;DHT22;16878;52.542;13.426;2022-08-25T01:09:48;19.80;99.90
30047;DHT22;16878;52.542;13.426;2022-08-25T01:12:15;19.80;99.90
30047;DHT22;16878;52.542;13.426;2022-08-25T01:14:41;19.80;99.90
30047;DHT22;16878;52.542;13.426;2022-08-25T01:17:07;19.80;99.90
30047;DHT22;16878;52.542;13.426;2022-08-25T01:19:33;19.80;99.90
30047;DHT22;16878;52.542;13.426;2022-08-25T01:21:59;19.70;99.90
30047;DHT22;16878;52.542;13.426;2022-08-25T01:24:40;19.70;99.90
30047;DHT22;16878;52.542;13.426;2022-08-25T01:27:06;19.60;99.90
30047;DHT22;16878;52.542;13.426;2022-08-25T01:29:32;19.70;99.90
30047;DHT22;16878;52.542;13.426;2022-08-25T01:32:02;19.70;99.90
30047;DHT22;16878;52.542;13.426;2022-08-25T01:34:29;19.70;99.90
30047;DHT22;16878;52.542;13.426;2022-08-25T01:36:55;19.60;99.90
30047;DHT22;16878;52.542;13.426;2022-08-25T01:39:21;19.60;99.90
30047;DHT22;16878;52.542;13.426;2022-08-25T01:44:13;19.60;99.90
30047;DHT22;16878;52.542;13.426;2022-08-25T01:46:38;19.60;99.90
30047;DHT22;16878;52.542;13.426;2022-08-25T01:49:04;19.60;99.90
30047;DHT22;16878;52.542;13.426;2022-08-25T01:51:32;19.60;99.90
30047;DHT22;16878;52.542;13.426;2022-08-25T01:53:58;19.50;99.90
30047;DHT22;16878;52.542;13.426;2022-08-25T01:56:24;19.50;99.90
30047;DHT22;16878;52.542;13.426;2022-08-25T01:58:49;19.50;99.90
30047;DHT22;16878;52.542;13.426;2022-08-25T02:01:16;19.50;99.90
30047;DHT22;16878;52.542;13.426;2022-08-25T02:03:43;19.50;99.90
30047;DHT22;16878;52.542;13.426;2022-08-25T02:06:10;19.50;99.90
30047;DHT22;16878;52.542;13.426;2022-08-25T02:08:36;19.50;99.90
30047;DHT22;16878;52.542;13.426;2022-08-25T02:11:02;19.50;99.90
30047;DHT22;16878;52.542;13.426;2022-08-25T02:13:28;19.50;99.90
30047;DHT22;16878;52.542;13.426;2022-08-25T02:15:55;19.40;99.90
30047;DHT22;16878;52.542;13.426;2022-08-25T02:18:20;19.40;99.90
30047;DHT22;16878;52.542;13.426;2022-08-25T02:20:46;19.40;99.90
30047;DHT22;16878;52.542;13.426;2022-08-25T02:23:12;19.40;99.90
30047;DHT22;16878;52.542;13.426;2022-08-25T02:25:37;19.40;99.90
30047;DHT22;16878;52.542;13.426;2022-08-25T02:28:04;19.40;99.90
30047;DHT22;16878;52.542;13.426;2022-08-25T02:30:29;19.40;99.90
30047;DHT22;16878;52.542;13.426;2022-08-25T02:32:55;19.30;99.90
30047;DHT22;16878;52.542;13.426;2022-08-25T02:35:20;19.30;99.90
30047;DHT22;16878;52.542;13.426;2022-08-25T02:37:46;19.30;99.90
30047;DHT22;16878;52.542;13.426;2022-08-25T02:40:11;19.30;99.90
30047;DHT22;16878;52.542;13.426;2022-08-25T02:42:37;19.30;99.90
30047;DHT22;16878;52.542;13.426;2022-08-25T02:45:03;19.30;99.90
30047;DHT22;16878;52.542;13.426;2022-08-25T02:47:29;19.20;99.90
30047;DHT22;16878;52.542;13.426;2022-08-25T02:49:56;19.20;99.90
30047;DHT22;16878;52.542;13.426;2022-08-25T02:52:21;19.30;99.90
30047;DHT22;16878;52.542;13.426;2022-08-25T02:54:47;19.30;99.90
30047;DHT22;16878;52.542;13.426;2022-08-25T02:57:12;19.30;99.90
30047;DHT22;16878;52.542;13.426;2022-08-25T02:59:40;19.20;99.90
30047;DHT22;16878;52.542;13.426;2022-08-25T03:02:05;19.20;99.90
30047;DHT22;16878;52.542;13.426;2022-08-25T03:04:31;19.20;99.90
30047;DHT22;16878;52.542;13.426;2022-08-25T03:06:57;19.20;99.90
30047;DHT22;16878;52.542;13.426;2022-08-25T03:09:23;19.20;99.90
30047;DHT22;16878;52.542;13.426;2022-08-25T03:11:49;19.20;99.90
30047;DHT22;16878;52.542;13.426;2022-08-25T03:14:14;19.20;99.90
30047;DHT22;16878;52.542;13.426;2022-08-25T03:16:40;19.20;99.90
30047;DHT22;16878;52.542;13.426;2022-08-25T03:19:07;19.10;99.90
30047;DHT22;16878;52.542;13.426;2022-08-25T03:21:32;19.10;99.90
30047;DHT22;16878;52.542;13.426;2022-08-25T03:23:58;19.10;99.90
30047;DHT22;16878;52.542;13.426;2022-08-25T03:26:24;19.10;99.90
30047;DHT22;16878;52.542;13.426;2022-08-25T03:29:08;19.10;99.90
30047;DHT22;16878;52.542;13.426;2022-08-25T03:31:35;19.00;99.90
30047;DHT22;16878;52.542;13.426;2022-08-25T03:34:00;19.00;99.90
30047;DHT22;16878;52.542;13.426;2022-08-25T03:36:26;18.90;99.90
30047;DHT22;16878;52.542;13.426;2022-08-25T03:38:52;19.00;99.90
30047;DHT22;16878;52.542;13.426;2022-08-25T03:41:19;18.90;99.90
30047;DHT22;16878;52.542;13.426;2022-08-25T03:43:46;18.90;99.90
30047;DHT22;16878;52.542;13.426;2022-08-25T03:46:15;18.90;99.90
30047;DHT22;16878;52.542;13.426;2022-08-25T03:48:41;18.90;99.90
30047;DHT22;16878;52.542;13.426;2022-08-25T03:51:07;18.90;99.90
30047;DHT22;16878;52.542;13.426;2022-08-25T03:53:32;18.90;99.90
30047;DHT22;16878;52.542;13.426;2022-08-25T03:55:58;18.90;99.90
30047;DHT22;16878;52.542;13.426;2022-08-25T03:58:23;18.90;99.90
30047;DHT22;16878;52.542;13.426;2022-08-25T04:00:49;18.90;99.90
30047;DHT22;16878;52.542;13.426;2022-08-25T04:03:14;19.00;99.90
30047;DHT22;16878;52.542;13.426;2022-08-25T04:05:41;18.90;99.90
30047;DHT22;16878;52.542;13.426;2022-08-25T04:08:07;18.90;99.90
30047;DHT22;16878;52.542;13.426;2022-08-25T04:10:33;18.90;99.90
30047;DHT22;16878;52.542;13.426;2022-08-25T04:13:00;19.00;99.90
30047;DHT22;16878;52.542;13.426;2022-08-25T04:15:26;19.00;99.90
30047;DHT22;16878;52.542;13.426;2022-08-25T04:17:51;19.00;99.90
30047;DHT22;16878;52.542;13.426;2022-08-25T04:20:17;18.90;99.90
30047;DHT22;16878;52.542;13.426;2022-08-25T04:22:43;18.90;99.90
30047;DHT22;16878;52.542;13.426;2022-08-25T04:25:08;18.90;99.90
30047;DHT22;16878;52.542;13.426;2022-08-25T04:27:34;18.90;99.90
30047;DHT22;16878;52.542;13.426;2022-08-25T04:30:00;18.90;99.90
30047;DHT22;16878;52.542;13.426;2022-08-25T04:32:25;18.90;99.90
30047;DHT22;16878;52.542;13.426;2022-08-25T04:34:52;18.90;99.90
30047;DHT22;16878;52.542;13.426;2022-08-25T04:37:17;18.80;99.90
30047;DHT22;16878;52.542;13.426;2022-08-25T04:39:43;18.80;99.90
30047;DHT22;16878;52.542;13.426;2022-08-25T04:42:08;18.80;99.90
30047;DHT22;16878;52.542;13.426;2022-08-25T04:44:34;18.80;99.90
30047;DHT22;16878;52.542;13.426;2022-08-25T04:46:59;18.90;99.90
30047;DHT22;16878;52.542;13.426;2022-08-25T04:49:25;18.90;99.90
30047;DHT22;16878;52.542;13.426;2022-08-25T04:51:51;18.90;99.90
30047;DHT22;16878;52.542;13.426;2022-08-25T04:54:16;19.00;99.90
30047;DHT22;16878;52.542;13.426;2022-08-25T04:56:45;19.00;99.90
30047;DHT22;16878;52.542;13.426;2022-08-25T04:59:11;19.10;99.90
30047;DHT22;16878;52.542;13.426;2022-08-25T05:01:38;19.10;99.90
30047;DHT22;16878;52.542;13.426;2022-08-25T05:04:04;19.10;99.90
30047;DHT22;16878;52.542;13.426;2022-08-25T05:06:30;19.10;99.90
30047;DHT22;16878;52.542;13.426;2022-08-25T05:08:56;19.20;99.90
30047;DHT22;16878;52.542;13.426;2022-08-25T05:11:22;19.20;99.90
30047;DHT22;16878;52.542;13.426;2022-08-25T05:13:49;19.20;99.90
30047;DHT22;16878;52.542;13.426;2022-08-25T05:16:14;19.30;99.90
30047;DHT22;16878;52.542;13.426;2022-08-25T05:18:40;19.30;99.90
30047;DHT22;16878;52.542;13.426;2022-08-25T05:21:07;19.30;99.90
30047;DHT22;16878;52.542;13.426;2022-08-25T05:23:33;19.30;99.90
30047;DHT22;16878;52.542;13.426;2022-08-25T05:26:05;19.30;99.90
30047;DHT22;16878;52.542;13.426;2022-08-25T05:28:31;19.40;99.90
30047;DHT22;16878;52.542;13.426;2022-08-25T05:30:58;19.40;99.90
30047;DHT22;16878;52.542;13.426;2022-08-25T05:33:24;19.40;99.90
30047;DHT22;16878;52.542;13.426;2022-08-25T05:35:49;19.40;99.90
30047;DHT22;16878;52.542;13.426;2022-08-25T05:38:15;19.30;99.90
30047;DHT22;16878;52.542;13.426;2022-08-25T05:40:41;19.30;99.90
30047;DHT22;16878;52.542;13.426;2022-08-25T05:43:06;19.20;99.90
30047;DHT22;16878;52.542;13.426;2022-08-25T05:45:32;19.10;99.90
30047;DHT22;16878;52.542;13.426;2022-08-25T05:47:57;19.10;99.90
30047;DHT22;16878;52.542;13.426;2022-08-25T05:50:23;19.00;99.90
30047;DHT22;16878;52.542;13.426;2022-08-25T05:52:48;19.00;99.90
30047;DHT22;16878;52.542;13.426;2022-08-25T05:55:14;18.90;99.90
30047;DHT22;16878;52.542;13.426;2022-08-25T05:57:40;19.00;99.90
30047;DHT22;16878;52.542;13.426;2022-08-25T06:00:05;19.10;99.90
30047;DHT22;16878;52.542;13.426;2022-08-25T06:02:31;19.10;99.90
30047;DHT22;16878;52.542;13.426;2022-08-25T06:05:08;19.20;99.90
30047;DHT22;16878;52.542;13.426;2022-08-25T06:07:34;19.20;99.90
30047;DHT22;16878;52.542;13.426;2022-08-25T06:10:01;19.20;99.90
30047;DHT22;16878;52.542;13.426;2022-08-25T06:12:27;19.30;99.90
30047;DHT22;16878;52.542;13.426;2022-08-25T06:14:52;19.40;99.90
30047;DHT22;16878;52.542;13.426;2022-08-25T06:17:18;19.50;99.90
30047;DHT22;16878;52.542;13.426;2022-08-25T06:19:43;19.60;99.90
30047;DHT22;16878;52.542;13.426;2022-08-25T06:22:09;19.60;99.90
30047;DHT22;16878;52.542;13.426;2022-08-25T06:24:34;19.50;99.90
30047;DHT22;16878;52.542;13.426;2022-08-25T06:27:00;19.40;99.90
30047;DHT22;16878;52.542;13.426;2022-08-25T06:29:26;19.40;99.90
30047;DHT22;16878;52.542;13.426;2022-08-25T06:31:51;19.50;99.90
30047;DHT22;16878;52.542;13.426;2022-08-25T06:34:17;19.60;99.90
30047;DHT22;16878;52.542;13.426;2022-08-25T06:36:42;19.70;99.90
30047;DHT22;16878;52.542;13.426;2022-08-25T06:39:08;19.70;99.90
30047;DHT22;16878;52.542;13.426;2022-08-25T06:41:34;19.90;99.90
30047;DHT22;16878;52.542;13.426;2022-08-25T06:43:59;20.00;99.90
30047;DHT22;16878;52.542;13.426;2022-08-25T06:46:25;20.10;99.90
30047;DHT22;16878;52.542;13.426;2022-08-25T06:48:51;20.10;99.90
30047;DHT22;16878;52.542;13.426;2022-08-25T06:51:17;20.10;99.90
30047;DHT22;16878;52.542;13.426;2022-08-25T06:53:44;20.00;99.90
30047;DHT22;16878;52.542;13.426;2022-08-25T06:56:10;20.10;99.90
30047;DHT22;16878;52.542;13.426;2022-08-25T06:58:36;20.00;99.90
30047;DHT22;16878;52.542;13.426;2022-08-25T07:01:21;20.00;99.90
30047;DHT22;16878;52.542;13.426;2022-08-25T07:03:48;20.00;99.90
30047;DHT22;16878;52.542;13.426;2022-08-25T07:06:14;20.10;99.90
30047;DHT22;16878;52.542;13.426;2022-08-25T07:08:40;20.20;99.90
30047;DHT22;16878;52.542;13.426;2022-08-25T07:11:06;20.10;99.90
30047;DHT22;16878;52.542;13.426;2022-08-25T07:13:32;20.20;99.90
30047;DHT22;16878;52.542;13.426;2022-08-25T07:15:57;20.40;99.90
30047;DHT22;16878;52.542;13.426;2022-08-25T07:18:23;20.70;99.90
30047;DHT22;16878;52.542;13.426;2022-08-25T07:20:49;20.90;99.90
30047;DHT22;16878;52.542;13.426;2022-08-25T07:23:16;21.00;99.90
30047;DHT22;16878;52.542;13.426;2022-08-25T07:25:42;21.10;99.90
30047;DHT22;16878;52.542;13.426;2022-08-25T07:28:07;21.00;99.90
30047;DHT22;16878;52.542;13.426;2022-08-25T07:30:33;21.00;99.90
30047;DHT22;16878;52.542;13.426;2022-08-25T07:32:58;21.00;99.90
30047;DHT22;16878;52.542;13.426;2022-08-25T07:35:24;21.10;99.90
30047;DHT22;16878;52.542;13.426;2022-08-25T07:37:52;21.20;99.90
30047;DHT22;16878;52.542;13.426;2022-08-25T07:40:26;21.30;99.90
30047;DHT22;16878;52.542;13.426;2022-08-25T07:42:53;21.30;99.90
30047;DHT22;16878;52.542;13.426;2022-08-25T07:45:19;21.30;99.90
30047;DHT22;16878;52.542;13.426;2022-08-25T07:47:45;21.30;99.90
30047;DHT22;16878;52.542;13.426;2022-08-25T07:50:11;21.30;99.90
30047;DHT22;16878;52.542;13.426;2022-08-25T07:52:38;21.40;99.90
30047;DHT22;16878;52.542;13.426;2022-08-25T07:55:04;21.50;99.90
30047;DHT22;16878;52.542;13.426;2022-08-25T07:57:32;21.50;99.90
30047;DHT22;16878;52.542;13.426;2022-08-25T07:59:58;21.50;99.90
30047;DHT22;16878;52.542;13.426;2022-08-25T08:02:24;21.60;99.90
30047;DHT22;16878;52.542;13.426;2022-08-25T08:04:50;21.70;99.90
30047;DHT22;16878;52.542;13.426;2022-08-25T08:07:20;21.80;99.90
30047;DHT22;16878;52.542;13.426;2022-08-25T08:09:47;22.10;99.90
30047;DHT22;16878;52.542;13.426;2022-08-25T08:12:12;22.40;99.90
30047;DHT22;16878;52.542;13.426;2022-08-25T08:14:38;22.60;99.90
30047;DHT22;16878;52.542;13.426;2022-08-25T08:17:04;22.80;99.90
30047;DHT22;16878;52.542;13.426;2022-08-25T08:19:30;22.70;99.90
30047;DHT22;16878;52.542;13.426;2022-08-25T08:21:55;22.70;99.90
30047;DHT22;16878;52.542;13.426;2022-08-25T08:24:21;22.60;99.90
30047;DHT22;16878;52.542;13.426;2022-08-25T08:26:46;22.60;99.90
30047;DHT22;16878;52.542;13.426;2022-08-25T08:29:12;22.70;99.90
30047;DHT22;16878;52.542;13.426;2022-08-25T08:31:39;23.00;99.90
30047;DHT22;16878;52.542;13.426;2022-08-25T08:34:04;23.10;99.90
30047;DHT22;16878;52.542;13.426;2022-08-25T08:36:30;23.10;99.90
30047;DHT22;16878;52.542;13.426;2022-08-25T08:38:56;23.30;99.90
30047;DHT22;16878;52.542;13.426;2022-08-25T08:46:35;23.10;99.90
30047;DHT22;16878;52.542;13.426;2022-08-25T08:49:05;23.10;99.90
30047;DHT22;16878;52.542;13.426;2022-08-25T08:51:38;23.10;99.90
30047;DHT22;16878;52.542;13.426;2022-08-25T08:54:18;23.00;99.90
30047;DHT22;16878;52.542;13.426;2022-08-25T08:56:46;23.00;99.90
30047;DHT22;16878;52.542;13.426;2022-08-25T08:59:14;23.10;99.90
30047;DHT22;16878;52.542;13.426;2022-08-25T09:01:44;23.20;99.90
30047;DHT22;16878;52.542;13.426;2022-08-25T09:04:18;23.30;99.90
30047;DHT22;16878;52.542;13.426;2022-08-25T09:06:46;23.20;99.90
30047;DHT22;16878;52.542;13.426;2022-08-25T09:09:19;23.20;99.90
30047;DHT22;16878;52.542;13.426;2022-08-25T09:14:34;23.50;99.90
30047;DHT22;16878;52.542;13.426;2022-08-25T09:20:05;23.50;99.90
30047;DHT22;16878;52.542;13.426;2022-08-25T09:28:02;23.70;99.90
30047;DHT22;16878;52.542;13.426;2022-08-25T09:33:17;24.00;99.90
30047;DHT22;16878;52.542;13.426;2022-08-25T09:35:43;23.80;99.90
30047;DHT22;16878;52.542;13.426;2022-08-25T09:38:10;23.70;99.90
30047;DHT22;16878;52.542;13.426;2022-08-25T09:40:44;23.70;99.90
30047;DHT22;16878;52.542;13.426;2022-08-25T09:43:50;23.90;99.90
30047;DHT22;16878;52.542;13.426;2022-08-25T09:48:32;23.80;99.90
30047;DHT22;16878;52.542;13.426;2022-08-25T09:53:47;23.50;99.90
30047;DHT22;16878;52.542;13.426;2022-08-25T09:56:14;23.80;99.90
30047;DHT22;16878;52.542;13.426;2022-08-25T09:58:43;23.70;99.90
30047;DHT22;16878;52.542;13.426;2022-08-25T10:01:13;23.70;99.90
30047;DHT22;16878;52.542;13.426;2022-08-25T10:03:56;23.60;99.90
30047;DHT22;16878;52.542;13.426;2022-08-25T10:06:22;23.30;99.90
30047;DHT22;16878;52.542;13.426;2022-08-25T10:11:14;23.60;99.90
30047;DHT22;16878;52.542;13.426;2022-08-25T10:13:59;23.70;99.90
30047;DHT22;16878;52.542;13.426;2022-08-25T10:16:27;24.10;99.90
30047;DHT22;16878;52.542;13.426;2022-08-25T10:19:07;24.00;99.90
30047;DHT22;16878;52.542;13.426;2022-08-25T10:21:33;23.80;99.90
30047;DHT22;16878;52.542;13.426;2022-08-25T10:23:59;23.90;99.90
30047;DHT22;16878;52.542;13.426;2022-08-25T10:26:33;24.00;99.90
30047;DHT22;16878;52.542;13.426;2022-08-25T10:32:33;24.00;99.90
30047;DHT22;16878;52.542;13.426;2022-08-25T10:39:30;24.10;99.90
30047;DHT22;16878;52.542;13.426;2022-08-25T10:42:02;24.30;99.90
30047;DHT22;16878;52.542;13.426;2022-08-25T10:47:39;24.50;99.90
30047;DHT22;16878;52.542;13.426;2022-08-25T10:52:37;24.80;99.90
30047;DHT22;16878;52.542;13.426;2022-08-25T10:55:10;25.00;99.90
30047;DHT22;16878;52.542;13.426;2022-08-25T11:00:22;25.40;99.90
30047;DHT22;16878;52.542;13.426;2022-08-25T11:10:06;25.30;99.90
30047;DHT22;16878;52.542;13.426;2022-08-25T11:12:48;25.40;99.90
30047;DHT22;16878;52.542;13.426;2022-08-25T11:15:28;25.40;99.90
30047;DHT22;16878;52.542;13.426;2022-08-25T11:18:13;25.20;99.90
30047;DHT22;16878;52.542;13.426;2022-08-25T11:20:41;25.10;99.90
30047;DHT22;16878;52.542;13.426;2022-08-25T11:23:30;25.10;99.90
30047;DHT22;16878;52.542;13.426;2022-08-25T11:25:59;25.30;99.90
30047;DHT22;16878;52.542;13.426;2022-08-25T11:30:52;25.50;99.90
30047;DHT22;16878;52.542;13.426;2022-08-25T11:33:20;25.60;99.90
30047;DHT22;16878;52.542;13.426;2022-08-25T11:35:52;25.60;99.90
30047;DHT22;16878;52.542;13.426;2022-08-25T11:41:15;25.90;99.90
30047;DHT22;16878;52.542;13.426;2022-08-25T11:51:32;25.60;99.90
30047;DHT22;16878;52.542;13.426;2022-08-25T11:56:49;25.70;99.90
30047;DHT22;16878;52.542;13.426;2022-08-25T11:59:37;26.10;99.90
30047;DHT22;16878;52.542;13.426;2022-08-25T12:02:01;26.40;99.90
30047;DHT22;16878;52.542;13.426;2022-08-25T12:04:34;26.50;99.90
30047;DHT22;16878;52.542;13.426;2022-08-25T12:15:13;26.50;99.90
30047;DHT22;16878;52.542;13.426;2022-08-25T12:17:44;26.60;99.90
30047;DHT22;16878;52.542;13.426;2022-08-25T12:20:09;26.50;99.90
30047;DHT22;16878;52.542;13.426;2022-08-25T12:25:05;26.30;99.90
30047;DHT22;16878;52.542;13.426;2022-08-25T12:30:27;26.00;99.90
30047;DHT22;16878;52.542;13.426;2022-08-25T12:41:03;25.80;99.90
30047;DHT22;16878;52.542;13.426;2022-08-25T12:43:32;25.70;99.90
30047;DHT22;16878;52.542;13.426;2022-08-25T12:48:52;25.70;99.90
30047;DHT22;16878;52.542;13.426;2022-08-25T12:51:25;26.10;99.90
30047;DHT22;16878;52.542;13.426;2022-08-25T12:53:52;26.30;99.90
30047;DHT22;16878;52.542;13.426;2022-08-25T12:56:33;26.50;99.90
30047;DHT22;16878;52.542;13.426;2022-08-25T12:59:04;26.80;99.90
30047;DHT22;16878;52.542;13.426;2022-08-25T13:04:08;26.90;99.90
30047;DHT22;16878;52.542;13.426;2022-08-25T13:11:46;26.90;99.90
30047;DHT22;16878;52.542;13.426;2022-08-25T13:14:18;26.80;99.90
30047;DHT22;16878;52.542;13.426;2022-08-25T13:16:52;26.80;99.90
30047;DHT22;16878;52.542;13.426;2022-08-25T13:19:18;26.90;99.90
30047;DHT22;16878;52.542;13.426;2022-08-25T13:21:44;26.70;99.90
30047;DHT22;16878;52.542;13.426;2022-08-25T13:24:25;26.60;99.90
30047;DHT22;16878;52.542;13.426;2022-08-25T13:26:56;26.50;99.90
30047;DHT22;16878;52.542;13.426;2022-08-25T13:29:23;26.60;99.90
30047;DHT22;16878;52.542;13.426;2022-08-25T13:31:59;26.80;99.90
30047;DHT22;16878;52.542;13.426;2022-08-25T13:34:29;26.80;99.90
30047;DHT22;16878;52.542;13.426;2022-08-25T13:36:56;26.80;99.90
30047;DHT22;16878;52.542;13.426;2022-08-25T13:39:47;27.00;99.90
30047;DHT22;16878;52.542;13.426;2022-08-25T13:42:14;27.50;99.90
30047;DHT22;16878;52.542;13.426;2022-08-25T13:44:40;27.50;99.90
30047;DHT22;16878;52.542;13.426;2022-08-25T13:49:35;27.80;99.90
30047;DHT22;16878;52.542;13.426;2022-08-25T13:52:01;27.70;99.90
30047;DHT22;16878;52.542;13.426;2022-08-25T13:54:44;27.70;99.90
30047;DHT22;16878;52.542;13.426;2022-08-25T13:57:24;27.60;99.90
30047;DHT22;16878;52.542;13.426;2022-08-25T13:59:51;27.50;99.90
30047;DHT22;16878;52.542;13.426;2022-08-25T14:05:01;27.30;99.90
30047;DHT22;16878;52.542;13.426;2022-08-25T14:07:27;27.20;99.90
30047;DHT22;16878;52.542;13.426;2022-08-25T14:12:29;26.80;99.90
30047;DHT22;16878;52.542;13.426;2022-08-25T14:17:36;26.60;99.90
30047;DHT22;16878;52.542;13.426;2022-08-25T14:20:03;26.60;99.90
30047;DHT22;16878;52.542;13.426;2022-08-25T14:22:29;26.90;99.90
30047;DHT22;16878;52.542;13.426;2022-08-25T14:24:55;27.00;99.90
30047;DHT22;16878;52.542;13.426;2022-08-25T14:27:20;27.00;99.90
30047;DHT22;16878;52.542;13.426;2022-08-25T14:29:46;26.90;99.90
30047;DHT22;16878;52.542;13.426;2022-08-25T14:32:12;26.80;99.90
30047;DHT22;16878;52.542;13.426;2022-08-25T14:34:40;26.80;99.90
30047;DHT22;16878;52.542;13.426;2022-08-25T14:37:14;26.60;99.90
30047;DHT22;16878;52.542;13.426;2022-08-25T14:39:40;26.80;99.90
30047;DHT22;16878;52.542;13.426;2022-08-25T14:42:05;27.00;99.90
30047;DHT22;16878;52.542;13.426;2022-08-25T14:44:31;27.00;99.90
30047;DHT22;16878;52.542;13.426;2022-08-25T14:46:57;27.00;99.90
30047;DHT22;16878;52.542;13.426;2022-08-25T14:49:25;27.00;99.90
30047;DHT22;16878;52.542;13.426;2022-08-25T14:51:54;26.90;99.90
30047;DHT22;16878;52.542;13.426;2022-08-25T14:54:20;26.80;99.90
30047;DHT22;16878;52.542;13.426;2022-08-25T14:56:47;26.80;99.90
30047;DHT22;16878;52.542;13.426;2022-08-25T14:59:14;26.70;99.90
30047;DHT22;16878;52.542;13.426;2022-08-25T15:01:39;26.80;99.90
30047;DHT22;16878;52.542;13.426;2022-08-25T15:04:07;26.90;99.90
30047;DHT22;16878;52.542;13.426;2022-08-25T15:06:34;26.80;99.90
30047;DHT22;16878;52.542;13.426;2022-08-25T15:09:00;26.90;99.90
30047;DHT22;16878;52.542;13.426;2022-08-25T15:11:42;26.90;99.90
30047;DHT22;16878;52.542;13.426;2022-08-25T15:14:08;27.00;99.90
30047;DHT22;16878;52.542;13.426;2022-08-25T15:16:44;26.90;99.90
30047;DHT22;16878;52.542;13.426;2022-08-25T15:19:11;26.90;99.90
30047;DHT22;16878;52.542;13.426;2022-08-25T15:21:39;26.80;99.90
30047;DHT22;16878;52.542;13.426;2022-08-25T15:24:05;26.70;99.90
30047;DHT22;16878;52.542;13.426;2022-08-25T15:26:33;26.50;99.90
30047;DHT22;16878;52.542;13.426;2022-08-25T15:29:01;26.50;99.90
30047;DHT22;16878;52.542;13.426;2022-08-25T15:31:27;26.60;99.90
30047;DHT22;16878;52.542;13.426;2022-08-25T15:33:53;26.70;99.90
30047;DHT22;16878;52.542;13.426;2022-08-25T15:36:19;26.80;99.90
30047;DHT22;16878;52.542;13.426;2022-08-25T15:38:46;27.00;99.90
30047;DHT22;16878;52.542;13.426;2022-08-25T15:41:12;27.00;99.90
30047;DHT22;16878;52.542;13.426;2022-08-25T15:43:37;27.00;99.90
30047;DHT22;16878;52.542;13.426;2022-08-25T15:46:03;27.00;99.90
30047;DHT22;16878;52.542;13.426;2022-08-25T15:48:30;27.00;99.90
30047;DHT22;16878;52.542;13.426;2022-08-25T15:50:56;26.90;99.90
30047;DHT22;16878;52.542;13.426;2022-08-25T15:53:22;26.80;99.90
30047;DHT22;16878;52.542;13.426;2022-08-25T15:55:50;26.70;99.90
30047;DHT22;16878;52.542;13.426;2022-08-25T15:58:16;26.60;99.90
30047;DHT22;16878;52.542;13.426;2022-08-25T16:00:41;26.50;99.90
30047;DHT22;16878;52.542;13.426;2022-08-25T16:03:07;26.50;99.90
30047;DHT22;16878;52.542;13.426;2022-08-25T16:05:36;26.50;99.90
30047;DHT22;16878;52.542;13.426;2022-08-25T16:08:02;26.50;99.90
30047;DHT22;16878;52.542;13.426;2022-08-25T16:10:27;26.40;99.90
30047;DHT22;16878;52.542;13.426;2022-08-25T16:12:56;26.60;99.90
30047;DHT22;16878;52.542;13.426;2022-08-25T16:15:22;26.70;99.90
30047;DHT22;16878;52.542;13.426;2022-08-25T16:17:48;26.60;99.90
30047;DHT22;16878;52.542;13.426;2022-08-25T16:20:14;26.60;99.90
30047;DHT22;16878;52.542;13.426;2022-08-25T16:22:40;26.60;99.90
30047;DHT22;16878;52.542;13.426;2022-08-25T16:25:06;26.60;99.90
30047;DHT22;16878;52.542;13.426;2022-08-25T16:27:31;26.60;99.90
30047;DHT22;16878;52.542;13.426;2022-08-25T16:29:57;26.70;99.90
30047;DHT22;16878;52.542;13.426;2022-08-25T16:32:23;26.70;99.90
30047;DHT22;16878;52.542;13.426;2022-08-25T16:34:49;26.60;99.90
30047;DHT22;16878;52.542;13.426;2022-08-25T16:37:15;26.50;99.90
30047;DHT22;16878;52.542;13.426;2022-08-25T16:39:40;26.50;99.90
30047;DHT22;16878;52.542;13.426;2022-08-25T16:42:09;26.50;99.90
30047;DHT22;16878;52.542;13.426;2022-08-25T16:44:35;26.60;99.90
30047;DHT22;16878;52.542;13.426;2022-08-25T16:47:01;26.60;99.90
30047;DHT22;16878;52.542;13.426;2022-08-25T16:49:27;26.60;99.90
30047;DHT22;16878;52.542;13.426;2022-08-25T16:51:53;26.50;99.90
30047;DHT22;16878;52.542;13.426;2022-08-25T16:54:20;26.50;99.90
30047;DHT22;16878;52.542;13.426;2022-08-25T16:57:04;26.50;99.90
30047;DHT22;16878;52.542;13.426;2022-08-25T16:59:29;26.40;99.90
30047;DHT22;16878;52.542;13.426;2022-08-25T17:01:55;26.50;99.90
30047;DHT22;16878;52.542;13.426;2022-08-25T17:04:21;26.40;99.90
30047;DHT22;16878;52.542;13.426;2022-08-25T17:06:46;26.40;99.90
30047;DHT22;16878;52.542;13.426;2022-08-25T17:09:12;26.40;99.90
30047;DHT22;16878;52.542;13.426;2022-08-25T17:11:39;26.40;99.90